Bookmark and Share
Track history (hours):
 

Garcia Miguel

Last reported at 2014-Mar-25 03:23 UTC. Time now 2014-Apr-17 18:38 UTC.
Position N 37°53' W 010°14'.
Warning: this ship's position is 23 days out of date.

Length 20 m.

Type: Fishing. MMSI: 263500286.

NotesDate/timePositionNaut miles runAvg speedWind from/ knotsBaromVisibWave heightAir tempDewpointWater temp
2014-Mar-25 03:23N 37°53' W 010°14'9 6.7
2014-Mar-25 02:06N 37°45' W 010°19'4 6.9
2014-Mar-25 01:31N 37°41' W 010°21'  
2014-Mar-17 10:10N 38°39' W 009°51'14 7.1
2014-Mar-17 08:11N 38°27' W 010°00'11 6.7
2014-Mar-17 06:33N 38°17' W 010°07'13 6.5
2014-Mar-17 04:32N 38°05' W 010°15'7 7.1
2014-Mar-17 03:33N 37°59' W 010°19'7 7.2
2014-Mar-17 02:33N 37°53' W 010°24'7 7.3
2014-Mar-17 01:33N 37°47' W 010°28'7 7.3
2014-Mar-17 00:33N 37°40' W 010°32'7 7.1
2014-Mar-16 23:33N 37°34' W 010°36'29 7.2
2014-Mar-16 19:33N 37°09' W 010°55'7 7.3
2014-Mar-16 18:33N 37°03' W 010°60'7 7.3
2014-Mar-16 17:33N 36°56' W 011°04'8 7.4
2014-Mar-16 16:25N 36°49' W 011°09'7 7.2
2014-Mar-16 15:28N 36°43' W 011°13'2 0.7
2014-Mar-16 12:10N 36°41' W 011°11'0 0.8
2014-Mar-16 11:33N 36°41' W 011°11'1 0.9
2014-Mar-16 10:32N 36°42' W 011°11'1 1.0
2014-Mar-16 09:28N 36°43' W 011°11'1 1.0
2014-Mar-16 08:32N 36°42' W 011°12'13 2.6
2014-Mar-16 03:33N 36°31' W 011°22'7 6.9
2014-Mar-16 02:32N 36°26' W 011°28'  

Dump ship's entire track history

sailing weather and tide predictions

Garcia Miguel — CUGT9 — position and weather